createdAt,value
2023-05-01T00:01:36.569Z,84.24
2023-05-01T00:04:03.936Z,84.67
2023-05-01T00:06:33.507Z,84.22
2023-05-01T00:09:00.919Z,83.68
2023-05-01T00:11:28.387Z,83.45
2023-05-01T00:13:55.589Z,83.61
2023-05-01T00:16:23.170Z,83.76
2023-05-01T00:18:50.606Z,85.05
2023-05-01T00:21:18.107Z,85.00
2023-05-01T00:23:45.345Z,85.68
2023-05-01T00:26:12.908Z,86.22
2023-05-01T00:28:43.861Z,86.73
2023-05-01T00:31:11.451Z,86.36
2023-05-01T00:33:38.752Z,86.74
2023-05-01T00:36:06.503Z,86.64
2023-05-01T00:38:33.735Z,87.05
2023-05-01T00:41:01.316Z,87.17
2023-05-01T00:43:28.504Z,86.99
2023-05-01T00:45:56.147Z,88.99
2023-05-01T00:48:23.380Z,90.09
2023-05-01T00:50:51.054Z,90.04
2023-05-01T00:53:19.051Z,90.78
2023-05-01T00:55:47.569Z,90.59
2023-05-01T00:58:17.756Z,90.40
2023-05-01T01:00:45.476Z,91.18
2023-05-01T01:03:12.803Z,90.27
2023-05-01T01:05:45.183Z,89.29
2023-05-01T01:08:32.548Z,89.10
2023-05-01T01:11:22.711Z,89.64
2023-05-01T01:14:25.200Z,90.41
2023-05-01T01:17:10.795Z,89.49
2023-05-01T01:20:04.270Z,89.32
2023-05-01T01:22:35.491Z,88.41
2023-05-01T01:25:33.522Z,89.71
2023-05-01T01:28:16.249Z,89.96
2023-05-01T01:30:49.474Z,89.01
2023-05-01T01:33:36.264Z,88.82
2023-05-01T01:36:11.830Z,89.16
2023-05-01T01:39:03.694Z,90.42
2023-05-01T01:41:36.997Z,91.59
2023-05-01T01:44:13.387Z,92.59
2023-05-01T01:46:42.837Z,91.59
2023-05-01T01:49:20.629Z,91.95
2023-05-01T01:51:50.169Z,92.23
2023-05-01T01:54:23.771Z,92.54
2023-05-01T01:56:52.005Z,93.45
2023-05-01T01:59:23.274Z,94.19
2023-05-01T02:01:53.630Z,95.08
2023-05-01T02:04:23.053Z,94.05
2023-05-01T02:06:50.470Z,93.55
2023-05-01T02:09:21.307Z,93.68
2023-05-01T02:11:51.276Z,93.55
2023-05-01T02:14:20.838Z,92.70
2023-05-01T02:16:49.300Z,93.13
2023-05-01T02:19:18.027Z,93.71
2023-05-01T02:21:47.693Z,93.32
2023-05-01T02:24:16.023Z,93.06
2023-05-01T02:26:49.784Z,93.28
2023-05-01T02:29:17.287Z,93.08
2023-05-01T02:31:44.640Z,93.43
2023-05-01T02:34:12.389Z,93.47
2023-05-01T02:36:39.772Z,92.78
2023-05-01T02:39:07.576Z,92.78
2023-05-01T02:41:35.664Z,93.50
2023-05-01T02:44:06.079Z,93.92
2023-05-01T02:46:36.953Z,94.11
2023-05-01T02:49:06.372Z,94.33
2023-05-01T02:51:35.743Z,95.04
2023-05-01T02:54:04.013Z,94.42
2023-05-01T02:56:31.809Z,94.14
2023-05-01T02:58:59.293Z,94.62
2023-05-01T03:01:27.055Z,94.46
2023-05-01T03:03:54.859Z,94.73
2023-05-01T03:06:22.262Z,94.25
2023-05-01T03:08:49.922Z,93.92
2023-05-01T03:11:17.433Z,93.61
2023-05-01T03:13:46.270Z,94.01
2023-05-01T03:16:13.555Z,95.39
2023-05-01T03:18:41.136Z,93.60
2023-05-01T03:21:08.308Z,92.11
2023-05-01T03:23:38.421Z,91.43
2023-05-01T03:26:05.792Z,90.21
2023-05-01T03:28:33.389Z,88.92
2023-05-01T03:31:00.984Z,86.76
2023-05-01T03:33:28.596Z,86.72
2023-05-01T03:36:04.252Z,84.64
2023-05-01T03:38:33.322Z,80.83
2023-05-01T03:41:10.250Z,75.31
2023-05-01T03:43:50.538Z,73.20
2023-05-01T03:46:41.458Z,67.29
2023-05-01T03:49:14.147Z,69.98
2023-05-01T03:51:46.832Z,66.36
2023-05-01T03:54:14.536Z,65.00
2023-05-01T03:56:58.647Z,63.65
2023-05-01T03:59:27.241Z,58.33
2023-05-01T04:01:54.501Z,56.03
2023-05-01T04:04:22.444Z,50.07
2023-05-01T04:06:56.213Z,46.06
2023-05-01T04:09:23.867Z,45.44
2023-05-01T04:11:51.294Z,45.09
2023-05-01T04:14:18.784Z,42.95
2023-05-01T04:16:46.037Z,41.11
2023-05-01T04:19:14.058Z,38.85
2023-05-01T04:21:43.864Z,40.71
2023-05-01T04:24:11.370Z,38.92
2023-05-01T04:26:39.429Z,38.43
2023-05-01T04:29:07.694Z,38.88
2023-05-01T04:31:35.201Z,36.91
2023-05-01T04:34:02.860Z,38.99
2023-05-01T04:36:32.970Z,44.09
2023-05-01T04:39:00.775Z,41.10
2023-05-01T04:41:29.501Z,41.22
2023-05-01T04:43:57.200Z,42.70
2023-05-01T04:46:24.497Z,38.34
2023-05-01T04:48:52.331Z,37.64
2023-05-01T04:51:20.618Z,36.19
2023-05-01T04:53:48.415Z,39.08
2023-05-01T04:56:22.816Z,36.11
2023-05-01T04:58:53.892Z,34.99
2023-05-01T05:01:23.710Z,32.12
2023-05-01T05:03:51.980Z,32.78
2023-05-01T05:06:20.120Z,30.89
2023-05-01T05:08:47.719Z,28.39
2023-05-01T05:11:15.546Z,25.84
2023-05-01T05:13:56.373Z,25.42
2023-05-01T05:16:23.695Z,22.37
2023-05-01T05:18:51.274Z,21.74
2023-05-01T05:21:19.368Z,22.98
2023-05-01T05:23:53.522Z,20.47
2023-05-01T05:26:20.839Z,21.37
2023-05-01T05:28:51.048Z,20.01
2023-05-01T05:31:18.460Z,19.94
2023-05-01T05:33:46.356Z,18.36
2023-05-01T05:36:15.597Z,18.28
2023-05-01T05:38:44.183Z,17.23
2023-05-01T05:41:15.049Z,16.28
2023-05-01T05:43:42.811Z,16.63
2023-05-01T05:46:10.368Z,16.30
2023-05-01T05:48:39.487Z,16.26
2023-05-01T05:51:06.748Z,17.63
2023-05-01T05:53:35.246Z,17.36
2023-05-01T05:56:02.843Z,19.15
2023-05-01T05:58:31.575Z,20.11
2023-05-01T06:00:59.067Z,22.32
2023-05-01T06:03:27.491Z,21.15
2023-05-01T06:05:59.271Z,20.42
2023-05-01T06:08:27.480Z,17.57
2023-05-01T06:10:54.766Z,16.21
2023-05-01T06:13:22.366Z,14.25
2023-05-01T06:15:50.565Z,14.34
2023-05-01T06:18:18.295Z,13.66
2023-05-01T06:20:45.782Z,12.42
2023-05-01T06:23:14.027Z,12.34
2023-05-01T06:25:52.657Z,13.02
2023-05-01T06:28:20.465Z,12.44
2023-05-01T06:30:48.429Z,11.38
2023-05-01T06:33:17.867Z,11.54
2023-05-01T06:35:49.092Z,10.81
2023-05-01T06:38:16.754Z,11.68
2023-05-01T06:40:47.069Z,11.26
2023-05-01T06:43:14.731Z,11.36
2023-05-01T06:45:42.234Z,11.25
2023-05-01T06:48:09.767Z,11.03
2023-05-01T06:50:37.153Z,10.65
2023-05-01T06:53:04.935Z,12.18
2023-05-01T06:55:33.875Z,10.73
2023-05-01T06:58:12.640Z,10.81
2023-05-01T07:00:50.808Z,10.73
2023-05-01T07:03:18.438Z,12.18
2023-05-01T07:05:45.800Z,11.44
2023-05-01T07:08:14.441Z,10.78
2023-05-01T07:10:42.329Z,10.75
2023-05-01T07:13:10.675Z,10.10
2023-05-01T07:15:38.081Z,11.75
2023-05-01T07:18:08.834Z,10.55
2023-05-01T07:20:36.167Z,10.39
2023-05-01T07:23:05.338Z,11.89
2023-05-01T07:25:34.521Z,11.23
2023-05-01T07:28:04.672Z,11.12
2023-05-01T07:30:33.281Z,12.16
2023-05-01T07:33:00.978Z,12.33
2023-05-01T07:35:28.531Z,11.09
2023-05-01T07:37:56.047Z,10.96
2023-05-01T07:40:23.219Z,12.41
2023-05-01T07:42:53.116Z,11.43
2023-05-01T07:45:21.564Z,11.03
2023-05-01T07:47:49.696Z,10.65
2023-05-01T07:50:17.265Z,10.54
2023-05-01T07:52:45.474Z,10.42
2023-05-01T07:55:13.036Z,10.78
2023-05-01T07:57:40.885Z,10.53
2023-05-01T08:00:08.530Z,11.14
2023-05-01T08:02:41.489Z,12.91
2023-05-01T08:05:09.478Z,13.76
2023-05-01T08:07:37.219Z,12.68
2023-05-01T08:10:05.087Z,14.02
2023-05-01T08:12:32.895Z,13.05
2023-05-01T08:15:00.187Z,14.34
2023-05-01T08:17:27.702Z,13.60
2023-05-01T08:19:56.851Z,13.54
2023-05-01T08:22:24.636Z,14.26
2023-05-01T08:24:53.451Z,14.16
2023-05-01T08:27:21.117Z,13.61
2023-05-01T08:29:48.556Z,12.91
2023-05-01T08:32:17.847Z,13.19
2023-05-01T08:34:45.061Z,15.13
2023-05-01T08:37:12.597Z,19.63
2023-05-01T08:39:39.788Z,17.95
2023-05-01T08:42:08.450Z,16.19
2023-05-01T08:44:38.400Z,15.59
2023-05-01T08:47:15.837Z,14.51
2023-05-01T08:49:44.345Z,13.81
2023-05-01T08:52:13.574Z,13.67
2023-05-01T08:54:44.793Z,13.90
2023-05-01T08:57:12.941Z,14.61
2023-05-01T08:59:41.106Z,13.70
2023-05-01T09:02:10.471Z,14.75
2023-05-01T09:04:39.884Z,16.03
2023-05-01T09:07:08.660Z,16.13
2023-05-01T09:09:36.871Z,17.05
2023-05-01T09:12:25.376Z,17.55
2023-05-01T09:14:54.472Z,16.95
2023-05-01T09:17:23.494Z,18.13
2023-05-01T09:19:51.337Z,18.15
2023-05-01T09:22:19.937Z,16.66
2023-05-01T09:24:47.308Z,17.47
2023-05-01T09:27:15.192Z,16.11
2023-05-01T09:29:44.611Z,15.85
2023-05-01T09:32:28.497Z,20.67
2023-05-01T09:35:09.509Z,22.70
2023-05-01T09:37:37.165Z,22.31
2023-05-01T09:40:12.042Z,21.35
2023-05-01T09:42:41.899Z,21.41
2023-05-01T09:45:15.891Z,23.41
2023-05-01T09:47:46.461Z,24.53
2023-05-01T09:50:34.585Z,26.76
2023-05-01T09:53:04.941Z,24.57
2023-05-01T09:55:33.160Z,22.83
2023-05-01T09:58:01.096Z,26.15
2023-05-01T10:00:28.367Z,22.94
2023-05-01T10:02:56.268Z,20.20
2023-05-01T10:05:24.669Z,22.38
2023-05-01T10:08:03.868Z,21.55
2023-05-01T10:10:31.348Z,21.58
2023-05-01T10:13:14.665Z,22.87
2023-05-01T10:15:41.920Z,23.53
2023-05-01T10:18:13.887Z,22.35
2023-05-01T10:20:41.170Z,21.89
2023-05-01T10:23:09.429Z,21.07
2023-05-01T10:25:37.269Z,22.19
2023-05-01T10:28:06.398Z,21.12
2023-05-01T10:30:35.777Z,21.71
2023-05-01T10:33:03.641Z,22.52
2023-05-01T10:35:39.231Z,22.70
2023-05-01T10:38:09.689Z,21.10
2023-05-01T10:40:40.070Z,21.25
2023-05-01T10:43:17.479Z,21.95
2023-05-01T10:45:46.207Z,22.04
2023-05-01T10:48:45.464Z,20.91
2023-05-01T10:51:18.028Z,21.95
2023-05-01T10:53:47.049Z,23.50
2023-05-01T10:56:27.196Z,23.61
2023-05-01T10:59:04.937Z,25.01
2023-05-01T11:01:43.287Z,26.23
2023-05-01T11:04:27.207Z,24.37
2023-05-01T11:07:08.262Z,25.02
2023-05-01T11:09:38.145Z,24.92
2023-05-01T11:12:06.665Z,24.53
2023-05-01T11:15:03.761Z,24.84
2023-05-01T11:17:42.785Z,25.71
2023-05-01T11:20:26.069Z,28.53
2023-05-01T11:22:55.803Z,27.93
2023-05-01T11:25:27.355Z,27.53
2023-05-01T11:28:02.423Z,28.88
2023-05-01T11:30:40.447Z,29.72
2023-05-01T11:33:10.769Z,30.60
2023-05-01T11:35:39.109Z,30.67
2023-05-01T11:38:06.451Z,30.63
2023-05-01T11:40:35.258Z,32.56
2023-05-01T11:43:07.168Z,29.30
2023-05-01T11:45:36.492Z,29.61
2023-05-01T11:48:05.071Z,30.03
2023-05-01T11:50:35.885Z,30.46
2023-05-01T11:53:11.814Z,30.91
2023-05-01T11:55:40.369Z,30.66
2023-05-01T11:58:08.029Z,30.30
2023-05-01T12:00:38.169Z,30.89
2023-05-01T12:03:10.941Z,31.09
2023-05-01T12:05:44.350Z,30.51
2023-05-01T12:08:20.835Z,30.06
2023-05-01T12:10:52.180Z,30.30
2023-05-01T12:13:20.788Z,29.86
2023-05-01T12:15:52.017Z,29.33
2023-05-01T12:18:21.596Z,29.99
2023-05-01T12:20:56.231Z,29.12
2023-05-01T12:23:36.043Z,29.34
2023-05-01T12:26:17.482Z,29.30
2023-05-01T12:28:58.640Z,29.37
2023-05-01T12:31:27.144Z,29.03
2023-05-01T12:34:01.898Z,29.42
2023-05-01T12:36:31.990Z,29.61
2023-05-01T12:39:02.940Z,28.61
2023-05-01T12:41:44.474Z,28.62
2023-05-01T12:44:19.344Z,28.74
2023-05-01T12:47:03.270Z,28.29
2023-05-01T12:49:32.516Z,28.54
2023-05-01T12:52:01.787Z,29.40
2023-05-01T12:54:31.531Z,29.44
2023-05-01T12:57:19.344Z,28.49
2023-05-01T12:59:47.210Z,28.62
2023-05-01T13:02:17.799Z,29.18
2023-05-01T13:04:46.564Z,29.01
2023-05-01T13:07:16.543Z,28.43
2023-05-01T13:09:54.607Z,29.54
2023-05-01T13:12:23.505Z,29.29
2023-05-01T13:14:51.459Z,28.48
2023-05-01T13:17:25.854Z,28.53
2023-05-01T13:19:58.092Z,28.59
2023-05-01T13:22:37.998Z,28.66
2023-05-01T13:25:15.076Z,28.14
2023-05-01T13:27:48.689Z,29.06
2023-05-01T13:30:19.872Z,28.52
2023-05-01T13:32:48.865Z,29.26
2023-05-01T13:35:24.158Z,27.22
2023-05-01T13:37:52.608Z,27.48
2023-05-01T13:40:20.621Z,27.52
2023-05-01T13:42:52.882Z,27.97
2023-05-01T13:45:23.343Z,27.79
2023-05-01T13:47:52.170Z,27.77
2023-05-01T13:50:19.541Z,28.20
2023-05-01T13:52:47.697Z,28.79
2023-05-01T13:55:14.964Z,28.32
2023-05-01T13:57:43.343Z,27.69
2023-05-01T14:00:19.301Z,28.03
2023-05-01T14:02:49.445Z,27.46
2023-05-01T14:05:20.770Z,27.93
2023-05-01T14:07:55.364Z,28.75
2023-05-01T14:10:26.432Z,28.42
2023-05-01T14:12:59.028Z,28.28
2023-05-01T14:15:27.033Z,27.59
2023-05-01T14:17:54.690Z,27.72
2023-05-01T14:20:25.342Z,27.15
2023-05-01T14:22:53.605Z,27.03
2023-05-01T14:25:29.939Z,26.71
2023-05-01T14:27:59.471Z,27.38
2023-05-01T14:30:27.274Z,27.38
2023-05-01T14:32:55.335Z,27.39
2023-05-01T14:35:23.994Z,27.78
2023-05-01T14:37:51.668Z,28.23
2023-05-01T14:40:23.181Z,27.45
2023-05-01T14:42:51.597Z,27.04
2023-05-01T14:45:18.965Z,27.42
2023-05-01T14:47:48.702Z,27.63
2023-05-01T14:50:22.729Z,28.05
2023-05-01T14:52:58.450Z,28.61
2023-05-01T14:55:28.389Z,27.92
2023-05-01T14:57:57.113Z,27.73
2023-05-01T15:00:24.733Z,28.26
2023-05-01T15:02:52.563Z,28.24
2023-05-01T15:05:19.870Z,28.70
2023-05-01T15:07:47.516Z,28.16
2023-05-01T15:10:16.069Z,27.12
2023-05-01T15:12:43.574Z,26.78
2023-05-01T15:15:11.456Z,26.89
2023-05-01T15:17:39.133Z,27.07
2023-05-01T15:20:07.099Z,27.46
2023-05-01T15:22:34.657Z,27.33
2023-05-01T15:25:01.856Z,27.82
2023-05-01T15:27:29.602Z,28.27
2023-05-01T15:29:57.431Z,28.29
2023-05-01T15:32:25.127Z,28.50
2023-05-01T15:34:56.761Z,28.37
2023-05-01T15:37:24.926Z,28.45
2023-05-01T15:39:52.347Z,28.01
2023-05-01T15:42:20.410Z,29.25
2023-05-01T15:44:48.003Z,29.09
2023-05-01T15:47:15.588Z,29.37
2023-05-01T15:49:42.992Z,28.29
2023-05-01T15:52:11.422Z,28.67
2023-05-01T15:54:38.653Z,28.90
2023-05-01T15:57:07.749Z,28.34
2023-05-01T15:59:34.943Z,27.21
2023-05-01T16:02:02.665Z,27.35
2023-05-01T16:04:30.038Z,27.84
2023-05-01T16:06:57.643Z,27.91
2023-05-01T16:09:31.886Z,27.84
2023-05-01T16:12:01.709Z,28.21
2023-05-01T16:14:28.999Z,28.57
2023-05-01T16:16:56.925Z,28.27
2023-05-01T16:19:24.222Z,28.31
2023-05-01T16:21:51.742Z,28.81
2023-05-01T16:24:19.002Z,29.01
2023-05-01T16:26:46.578Z,29.19
2023-05-01T16:29:13.914Z,29.28
2023-05-01T16:31:47.364Z,29.45
2023-05-01T16:34:18.099Z,29.92
2023-05-01T16:36:47.016Z,29.46
2023-05-01T16:39:16.761Z,29.76
2023-05-01T16:41:47.466Z,30.28
2023-05-01T16:44:19.029Z,30.31
2023-05-01T16:46:53.649Z,30.36
2023-05-01T16:49:22.013Z,30.75
2023-05-01T16:51:50.262Z,30.58
2023-05-01T16:54:18.663Z,31.01
2023-05-01T16:56:46.172Z,31.58
2023-05-01T16:59:13.374Z,31.53
2023-05-01T17:01:40.903Z,31.81
2023-05-01T17:04:08.518Z,31.73
2023-05-01T17:06:36.500Z,31.90
2023-05-01T17:09:03.766Z,33.58
2023-05-01T17:11:32.077Z,34.58
2023-05-01T17:13:59.475Z,34.92
2023-05-01T17:16:27.580Z,34.64
2023-05-01T17:18:54.946Z,34.64
2023-05-01T17:21:24.705Z,35.72
2023-05-01T17:23:51.982Z,35.62
2023-05-01T17:26:19.450Z,35.42
2023-05-01T17:28:46.721Z,36.24
2023-05-01T17:31:15.401Z,35.97
2023-05-01T17:33:44.069Z,36.15
2023-05-01T17:36:11.833Z,36.33
2023-05-01T17:38:39.063Z,36.90
2023-05-01T17:41:07.073Z,37.00
2023-05-01T17:43:34.220Z,37.32
2023-05-01T17:46:01.885Z,36.95
2023-05-01T17:48:29.082Z,37.50
2023-05-01T17:50:56.629Z,37.36
2023-05-01T17:53:24.023Z,37.04
2023-05-01T17:55:52.170Z,37.80
2023-05-01T17:58:19.373Z,37.51
2023-05-01T18:00:47.722Z,37.78
2023-05-01T18:03:15.131Z,37.54
2023-05-01T18:05:42.794Z,38.38
2023-05-01T18:08:10.048Z,37.98
2023-05-01T18:10:37.598Z,38.22
2023-05-01T18:13:04.834Z,38.40
2023-05-01T18:15:32.415Z,38.49
2023-05-01T18:17:59.838Z,38.49
2023-05-01T18:20:27.778Z,38.60
2023-05-01T18:22:54.937Z,39.26
2023-05-01T18:25:22.634Z,39.57
2023-05-01T18:27:49.914Z,39.38
2023-05-01T18:30:17.464Z,39.51
2023-05-01T18:32:48.031Z,39.39
2023-05-01T18:35:18.622Z,39.64
2023-05-01T18:37:46.655Z,40.17
2023-05-01T18:40:14.266Z,40.11
2023-05-01T18:42:42.022Z,40.31
2023-05-01T18:45:14.239Z,40.76
2023-05-01T18:47:41.646Z,40.85
2023-05-01T18:50:09.951Z,40.20
2023-05-01T18:52:37.305Z,40.49
2023-05-01T18:55:05.340Z,40.68
2023-05-01T18:57:32.739Z,40.70
2023-05-01T19:00:01.430Z,40.79
2023-05-01T19:02:29.037Z,41.75
2023-05-01T19:04:58.316Z,41.34
2023-05-01T19:07:26.548Z,41.37
2023-05-01T19:09:54.324Z,41.35
2023-05-01T19:12:21.593Z,41.39
2023-05-01T19:14:49.094Z,41.64
2023-05-01T19:17:16.272Z,41.35
2023-05-01T19:19:43.762Z,41.80
2023-05-01T19:22:11.133Z,42.57
2023-05-01T19:24:38.856Z,42.23
2023-05-01T19:27:06.049Z,42.26
2023-05-01T19:29:34.110Z,43.15
2023-05-01T19:32:01.548Z,43.34
2023-05-01T19:34:29.289Z,43.30
2023-05-01T19:36:57.096Z,43.20
2023-05-01T19:39:24.648Z,43.66
2023-05-01T19:41:52.084Z,43.64
2023-05-01T19:44:19.664Z,44.04
2023-05-01T19:46:46.965Z,43.64
2023-05-01T19:49:15.121Z,43.13
2023-05-01T19:51:42.528Z,43.69
2023-05-01T19:54:09.989Z,43.70
2023-05-01T19:56:38.686Z,44.05
2023-05-01T19:59:06.529Z,44.35
2023-05-01T20:01:38.992Z,44.60
2023-05-01T20:04:06.805Z,44.29
2023-05-01T20:06:34.223Z,44.73
2023-05-01T20:09:02.202Z,44.40
2023-05-01T20:11:29.397Z,44.88
2023-05-01T20:13:56.986Z,44.37
2023-05-01T20:16:24.325Z,44.15
2023-05-01T20:18:52.140Z,43.92
2023-05-01T20:21:19.334Z,45.00
2023-05-01T20:23:46.808Z,45.10
2023-05-01T20:26:13.993Z,44.72
2023-05-01T20:28:41.476Z,44.33
2023-05-01T20:31:09.566Z,45.11
2023-05-01T20:33:37.094Z,44.45
2023-05-01T20:36:05.536Z,44.25
2023-05-01T20:38:47.647Z,44.94
2023-05-01T20:41:15.205Z,45.01
2023-05-01T20:43:42.932Z,44.59
2023-05-01T20:46:10.289Z,44.62
2023-05-01T20:48:37.863Z,44.48
2023-05-01T20:51:05.099Z,44.39
2023-05-01T20:53:32.929Z,44.31
2023-05-01T20:56:00.163Z,44.16
2023-05-01T20:58:27.708Z,44.06
2023-05-01T21:00:55.921Z,44.20
2023-05-01T21:03:23.819Z,43.33
2023-05-01T21:05:51.136Z,43.28
2023-05-01T21:08:19.530Z,43.14
2023-05-01T21:10:46.705Z,43.23
2023-05-01T21:13:15.255Z,42.63
2023-05-01T21:15:42.497Z,42.36
2023-05-01T21:18:12.527Z,42.47
2023-05-01T21:20:41.248Z,42.52
2023-05-01T21:23:08.954Z,42.64
2023-05-01T21:25:36.196Z,42.44
2023-05-01T21:28:05.888Z,42.52
2023-05-01T21:30:35.223Z,42.53
2023-05-01T21:33:06.534Z,42.76
2023-05-01T21:35:34.027Z,43.04
2023-05-01T21:38:01.586Z,43.11
2023-05-01T21:40:28.980Z,42.90
2023-05-01T21:42:56.620Z,43.03
2023-05-01T21:45:24.753Z,43.15
2023-05-01T21:47:52.469Z,43.79
2023-05-01T21:50:21.277Z,43.19
2023-05-01T21:52:49.989Z,42.97
2023-05-01T21:55:22.283Z,42.54
2023-05-01T21:57:50.355Z,42.95
2023-05-01T22:00:19.160Z,43.18
2023-05-01T22:02:48.978Z,42.92
2023-05-01T22:05:20.064Z,43.34
2023-05-01T22:07:48.396Z,43.00
2023-05-01T22:10:18.113Z,42.69
2023-05-01T22:12:46.318Z,43.34
2023-05-01T22:15:15.633Z,43.24
2023-05-01T22:17:45.074Z,43.38
2023-05-01T22:20:12.619Z,42.88
2023-05-01T22:22:41.618Z,43.31
2023-05-01T22:25:10.003Z,43.87
2023-05-01T22:27:38.079Z,43.40
2023-05-01T22:30:06.237Z,43.79
2023-05-01T22:32:34.132Z,43.79
2023-05-01T22:35:01.743Z,43.79
2023-05-01T22:37:30.151Z,43.40
2023-05-01T22:39:57.775Z,43.52
2023-05-01T22:42:25.809Z,44.06
2023-05-01T22:44:53.095Z,44.57
2023-05-01T22:47:20.606Z,44.08
2023-05-01T22:49:47.861Z,44.29
2023-05-01T22:52:15.563Z,44.54
2023-05-01T22:54:42.709Z,44.67
2023-05-01T22:57:10.372Z,43.94
2023-05-01T22:59:39.610Z,44.41
2023-05-01T23:02:07.285Z,44.58
2023-05-01T23:04:34.584Z,44.79
2023-05-01T23:07:02.253Z,44.15
2023-05-01T23:09:32.975Z,44.10
2023-05-01T23:12:00.509Z,44.55
2023-05-01T23:14:27.851Z,43.81
2023-05-01T23:16:55.412Z,44.54
2023-05-01T23:19:24.887Z,44.35
2023-05-01T23:22:08.722Z,44.91
2023-05-01T23:24:43.782Z,44.97
2023-05-01T23:27:13.578Z,45.32
2023-05-01T23:29:41.596Z,45.11
2023-05-01T23:32:18.427Z,45.29
2023-05-01T23:34:45.772Z,44.96
2023-05-01T23:37:13.266Z,45.92
2023-05-01T23:39:40.598Z,45.61
2023-05-01T23:42:08.115Z,46.01
2023-05-01T23:44:35.386Z,45.93
2023-05-01T23:47:03.246Z,45.32
2023-05-01T23:49:30.715Z,45.14
2023-05-01T23:51:58.232Z,45.49
2023-05-01T23:54:25.402Z,45.95
2023-05-01T23:56:53.659Z,45.17
2023-05-01T23:59:20.856Z,45.23
